Terminal Aerodrome Forecast
Issued by NWS

Home | Current Version | Previous Version | Text Only | Print | Product List | Glossary On
Versions: 1 2 3 4 5 6 7 8 9 10 11 12 13 14 15 16 17 18 19 20 21 22 23 24 25 26 27 28 29 30 31 32 33 34 35 36 37 38 39 40 41 42 43 44 45 46 47 48 49 50
000
FTUS42 KMFL 231221 AAA
TAFOPF
TAF AMD
KOPF 231221Z 2312/2412 VRB06G20KT P6SM VCTS SCT016CB BKN040 BKN250
      TEMPO 2312/2313 VRB10G25KT 4SM SHRA SCT015 BKN025 BKN040
     FM231400 12009KT P6SM VCTS SCT025CB BKN050 BKN250
      TEMPO 2316/2318 VRB10G20KT 4SM TSRA SCT020CB BKN030
     FM231800 15009KT P6SM VCTS SCT020CB BKN050 BKN200
     FM240000 VRB04KT P6SM SCT030 BKN100 BKN250=

USA.gov is the U.S. government's official web portal to all federal, state and local government web resources and services.